Time;durP1;ratioP1;P1;durP2;ratioP2;P2;SDS_P1;SDS_P2;PMS_P1;PMS_P2;Temp;Humidity;BMP_temperature;BMP_pressure;BME280_temperature;BME280_humidity;BME280_pressure;Samples;Min_cycle;Max_cycle;Signal;HPM_P1;HPM_P2
2023/04/18 00:00:06;;;;;;;13.93;9.83;;;9.80;99.90;;;;;;5077110;28;20734;-59
2023/04/18 00:02:35;;;;;;;16.33;10.83;;;9.70;99.90;;;;;;5078464;28;20257;-58
2023/04/18 00:05:04;;;;;;;13.43;9.57;;;9.80;99.90;;;;;;5075703;28;20308;-58
2023/04/18 00:07:31;;;;;;;13.27;10.80;;;9.80;99.90;;;;;;5075010;28;20566;-61
2023/04/18 00:09:57;;;;;;;13.80;10.00;;;9.90;99.90;;;;;;5076406;28;20306;-58
2023/04/18 00:12:24;;;;;;;13.60;10.87;;;9.80;99.90;;;;;;5075865;28;20211;-59
2023/04/18 00:14:51;;;;;;;16.27;11.13;;;9.80;99.90;;;;;;5075207;28;20269;-59
2023/04/18 00:17:19;;;;;;;14.93;11.03;;;9.70;99.90;;;;;;5077673;28;20775;-58
2023/04/18 00:19:46;;;;;;;14.83;10.80;;;9.70;99.90;;;;;;5068117;28;20220;-58
2023/04/18 00:22:15;;;;;;;15.10;9.97;;;9.60;99.90;;;;;;5075016;28;20201;-58
2023/04/18 00:24:42;;;;;;;15.13;10.50;;;9.70;99.90;;;;;;5073104;28;20260;-58
2023/04/18 00:27:09;;;;;;;12.97;10.10;;;9.70;99.90;;;;;;5075645;28;20205;-58
2023/04/18 00:29:35;;;;;;;14.23;9.77;;;9.70;99.90;;;;;;5070644;28;20642;-58
2023/04/18 00:32:02;;;;;;;14.77;10.20;;;9.60;99.90;;;;;;5058480;28;20230;-58
2023/04/18 00:34:29;;;;;;;16.90;10.83;;;9.50;99.90;;;;;;5073905;28;20223;-58
2023/04/18 00:36:56;;;;;;;16.57;10.30;;;9.50;99.90;;;;;;5074587;28;20192;-58
2023/04/18 00:39:23;;;;;;;15.33;10.37;;;9.60;99.90;;;;;;5056560;28;20692;-58
2023/04/18 00:41:50;;;;;;;14.73;10.10;;;9.50;99.90;;;;;;5074550;28;20283;-58
2023/04/18 00:44:17;;;;;;;13.80;9.57;;;9.50;99.90;;;;;;5073051;28;20198;-58
2023/04/18 00:46:44;;;;;;;14.40;10.47;;;9.40;99.90;;;;;;5075397;28;20312;-58
2023/04/18 00:49:11;;;;;;;14.10;10.10;;;9.40;99.90;;;;;;5070078;28;20296;-58
2023/04/18 00:51:39;;;;;;;13.23;10.93;;;9.40;99.90;;;;;;5076809;28;20251;-58
2023/04/18 00:54:07;;;;;;;14.27;9.60;;;9.40;99.90;;;;;;5069998;28;20318;-58
2023/04/18 00:56:35;;;;;;;13.00;9.87;;;9.30;99.90;;;;;;5075907;28;20197;-59
2023/04/18 00:59:02;;;;;;;12.37;10.30;;;9.30;99.90;;;;;;5066057;28;20206;-58
2023/04/18 01:01:29;;;;;;;13.00;9.50;;;9.30;99.90;;;;;;5077700;28;20631;-58
2023/04/18 01:03:56;;;;;;;14.20;10.20;;;9.30;99.90;;;;;;5074006;28;20660;-60
2023/04/18 01:06:24;;;;;;;13.47;10.07;;;9.30;99.90;;;;;;5074683;28;20202;-61
2023/04/18 01:08:51;;;;;;;15.87;10.47;;;9.20;99.90;;;;;;5075151;28;20202;-59
2023/04/18 01:11:17;;;;;;;12.53;10.10;;;9.10;99.90;;;;;;5076985;28;20657;-58
2023/04/18 01:14:01;;;;;;;11.80;9.47;;;9.10;99.90;;;;;;5076633;28;20209;-58
2023/04/18 01:16:31;;;;;;;16.77;9.47;;;9.10;99.90;;;;;;5077115;28;20236;-58
2023/04/18 01:19:02;;;;;;;13.17;8.67;;;9.00;99.90;;;;;;5076333;28;20265;-58
2023/04/18 01:21:32;;;;;;;11.10;8.80;;;8.90;99.90;;;;;;5073602;28;20693;-58
2023/04/18 01:24:10;;;;;;;13.93;9.30;;;8.90;99.90;;;;;;5061895;28;20206;-58
2023/04/18 01:26:38;;;;;;;13.03;9.30;;;8.80;99.90;;;;;;5074187;28;20281;-59
2023/04/18 01:29:05;;;;;;;12.17;8.70;;;8.80;99.90;;;;;;5074952;28;20612;-58
2023/04/18 01:31:37;;;;;;;11.53;8.87;;;8.80;99.90;;;;;;5058425;28;20251;-58
2023/04/18 01:34:04;;;;;;;13.93;9.07;;;8.80;99.90;;;;;;5076077;28;20899;-58
2023/04/18 01:36:32;;;;;;;11.87;8.63;;;8.70;99.90;;;;;;5074283;28;20306;-60
2023/04/18 01:38:59;;;;;;;13.17;9.13;;;8.70;99.90;;;;;;5074650;28;20222;-59
2023/04/18 01:41:28;;;;;;;12.60;8.33;;;8.70;99.90;;;;;;5075881;28;20214;-58
2023/04/18 01:43:55;;;;;;;9.97;7.93;;;8.70;99.90;;;;;;5072847;28;20207;-58
2023/04/18 01:46:22;;;;;;;9.50;8.00;;;8.60;99.90;;;;;;5049268;28;20247;-59
2023/04/18 01:48:49;;;;;;;13.27;8.50;;;8.70;99.90;;;;;;5034228;28;20239;-58
2023/04/18 01:51:16;;;;;;;11.47;8.33;;;8.60;99.90;;;;;;5034170;28;20281;-58
2023/04/18 01:53:43;;;;;;;9.90;8.03;;;8.60;99.90;;;;;;5031966;28;20232;-58
2023/04/18 01:56:09;;;;;;;10.73;8.20;;;8.60;99.90;;;;;;5032046;28;20298;-58
2023/04/18 01:58:36;;;;;;;12.23;8.67;;;8.60;99.90;;;;;;5033190;28;20207;-59
2023/04/18 02:01:03;;;;;;;11.60;8.10;;;8.50;99.90;;;;;;5033189;28;20211;-58
2023/04/18 02:03:30;;;;;;;13.17;8.27;;;8.40;99.90;;;;;;5036304;28;20659;-58
2023/04/18 02:06:00;;;;;;;12.07;8.10;;;8.30;99.90;;;;;;5032824;28;20201;-59
2023/04/18 02:08:27;;;;;;;12.57;8.53;;;8.40;99.90;;;;;;5034763;28;20216;-67
2023/04/18 02:10:54;;;;;;;11.63;8.57;;;8.40;99.90;;;;;;5034324;28;20595;-59
2023/04/18 02:13:21;;;;;;;10.43;8.53;;;8.30;99.90;;;;;;5033994;28;20212;-59
2023/04/18 02:15:48;;;;;;;9.27;8.00;;;8.20;99.90;;;;;;5037742;28;20587;-58
2023/04/18 02:18:16;;;;;;;10.27;8.03;;;8.20;99.90;;;;;;5032021;28;20235;-58
2023/04/18 02:20:43;;;;;;;10.40;8.47;;;8.20;99.90;;;;;;5034590;28;20690;-59
2023/04/18 02:23:10;;;;;;;9.93;7.60;;;8.10;99.90;;;;;;5031159;28;20215;-58
2023/04/18 02:25:37;;;;;;;11.50;8.03;;;8.20;99.90;;;;;;5032736;28;20213;-58
2023/04/18 02:28:04;;;;;;;10.70;7.80;;;8.10;99.90;;;;;;5032197;28;20337;-60
2023/04/18 02:30:31;;;;;;;8.87;6.90;;;8.10;99.90;;;;;;5031712;28;20286;-58
2023/04/18 02:32:58;;;;;;;9.33;7.73;;;8.20;99.90;;;;;;5034055;28;20285;-58
2023/04/18 02:35:26;;;;;;;11.53;7.87;;;8.10;99.90;;;;;;5030706;28;20217;-58
2023/04/18 02:37:53;;;;;;;11.47;7.57;;;8.00;99.90;;;;;;5032439;28;20261;-58
2023/04/18 02:40:20;;;;;;;9.83;7.57;;;7.90;99.90;;;;;;5033395;28;20213;-59
2023/04/18 02:42:46;;;;;;;10.77;8.23;;;7.90;99.90;;;;;;5034275;28;20193;-58
2023/04/18 02:45:13;;;;;;;11.73;7.67;;;7.90;99.90;;;;;;5031314;28;20240;-58
2023/04/18 02:47:41;;;;;;;12.80;8.40;;;7.80;99.90;;;;;;5039299;28;20266;-59
2023/04/18 02:50:19;;;;;;;10.03;7.63;;;7.80;99.90;;;;;;5046439;28;20647;-58
2023/04/18 02:52:46;;;;;;;10.17;7.97;;;7.80;99.90;;;;;;5041136;28;20282;-58
2023/04/18 02:55:13;;;;;;;12.10;8.30;;;7.80;99.90;;;;;;5043876;28;20268;-62
2023/04/18 02:57:40;;;;;;;11.40;7.40;;;7.80;99.90;;;;;;5044054;28;20249;-58
2023/04/18 03:00:08;;;;;;;11.73;8.03;;;7.70;99.90;;;;;;5044728;28;20874;-58
2023/04/18 03:02:34;;;;;;;9.47;7.73;;;7.70;99.90;;;;;;5042557;28;20224;-59
2023/04/18 03:05:02;;;;;;;12.57;7.50;;;7.60;99.90;;;;;;5042435;28;20208;-58
2023/04/18 03:07:29;;;;;;;11.30;7.97;;;7.50;99.90;;;;;;5043287;28;20304;-60
2023/04/18 03:09:56;;;;;;;16.80;8.27;;;7.50;99.90;;;;;;5040129;28;20250;-58
2023/04/18 03:12:23;;;;;;;8.97;7.23;;;7.60;99.90;;;;;;5044597;28;20298;-60
2023/04/18 03:14:50;;;;;;;12.27;7.93;;;7.50;99.90;;;;;;5042542;28;20632;-58
2023/04/18 03:17:17;;;;;;;8.90;7.57;;;7.50;99.90;;;;;;5042972;28;20202;-58
2023/04/18 03:19:45;;;;;;;9.20;7.33;;;7.40;99.90;;;;;;5042912;28;20296;-59
2023/04/18 03:22:12;;;;;;;9.83;7.20;;;7.40;99.90;;;;;;5042621;28;20200;-58
2023/04/18 03:24:39;;;;;;;10.80;7.30;;;7.30;99.90;;;;;;5036220;28;20337;-58
2023/04/18 03:27:06;;;;;;;10.37;7.67;;;7.30;99.90;;;;;;5043799;28;20207;-58
2023/04/18 03:29:33;;;;;;;8.77;7.03;;;7.20;99.90;;;;;;5043263;28;20279;-58
2023/04/18 03:32:00;;;;;;;10.37;7.17;;;7.20;99.90;;;;;;5042967;28;20250;-58
2023/04/18 03:34:28;;;;;;;12.07;7.87;;;7.30;99.90;;;;;;5041127;28;20199;-58
2023/04/18 03:36:55;;;;;;;11.13;7.30;;;7.20;99.90;;;;;;5046421;28;20237;-58
2023/04/18 03:39:21;;;;;;;10.63;7.63;;;7.20;99.90;;;;;;5039826;28;20618;-60
2023/04/18 03:41:48;;;;;;;9.43;7.30;;;7.10;99.90;;;;;;5044370;28;20206;-61
2023/04/18 03:44:15;;;;;;;10.80;8.10;;;7.20;99.90;;;;;;5052769;28;20206;-64
2023/04/18 03:46:42;;;;;;;8.87;7.30;;;7.10;99.90;;;;;;5060883;28;20325;-61
2023/04/18 03:49:09;;;;;;;10.60;6.97;;;7.10;99.90;;;;;;5053190;28;20212;-61
2023/04/18 03:51:48;;;;;;;9.13;7.00;;;7.00;99.90;;;;;;5076071;28;20263;-61
2023/04/18 03:54:15;;;;;;;10.73;7.77;;;7.00;99.90;;;;;;5074367;28;20602;-61
2023/04/18 03:56:43;;;;;;;10.63;6.87;;;7.00;99.90;;;;;;5074732;28;20215;-62
2023/04/18 03:59:10;;;;;;;8.97;7.57;;;7.00;99.90;;;;;;5072251;28;20201;-60
2023/04/18 04:01:37;;;;;;;9.83;7.47;;;7.00;99.90;;;;;;5073804;28;20221;-59
2023/04/18 04:04:05;;;;;;;9.37;7.30;;;6.90;99.90;;;;;;5074766;28;20200;-59
2023/04/18 04:06:32;;;;;;;11.03;7.77;;;7.00;99.90;;;;;;5077433;28;20254;-59
2023/04/18 04:08:59;;;;;;;9.47;7.33;;;7.00;99.90;;;;;;5073332;28;20669;-59
2023/04/18 04:11:26;;;;;;;9.30;7.03;;;6.90;99.90;;;;;;5076346;28;20663;-59
2023/04/18 04:13:53;;;;;;;10.33;7.27;;;6.90;99.90;;;;;;5074270;28;20536;-59
2023/04/18 04:16:20;;;;;;;9.40;7.87;;;6.80;99.90;;;;;;5065558;28;20214;-59
2023/04/18 04:18:47;;;;;;;10.40;8.20;;;6.80;99.90;;;;;;5076001;28;20216;-59
2023/04/18 04:21:14;;;;;;;12.33;7.67;;;6.90;99.90;;;;;;5056157;28;20232;-60
2023/04/18 04:23:41;;;;;;;11.00;8.50;;;6.80;99.90;;;;;;5073082;28;20589;-59
2023/04/18 04:26:09;;;;;;;8.57;6.80;;;6.80;99.90;;;;;;5073684;28;20209;-61
2023/04/18 04:28:36;;;;;;;10.90;7.40;;;6.70;99.90;;;;;;5073258;28;20259;-59
2023/04/18 04:31:06;;;;;;;9.80;8.00;;;6.70;99.90;;;;;;5076730;28;20205;-59
2023/04/18 04:33:34;;;;;;;11.13;7.40;;;6.80;99.90;;;;;;5060189;28;20213;-60
2023/04/18 04:36:01;;;;;;;10.47;7.37;;;6.70;99.90;;;;;;5073495;28;20292;-59
2023/04/18 04:38:29;;;;;;;10.60;7.60;;;6.60;99.90;;;;;;5040231;28;20416;-59
2023/04/18 04:40:57;;;;;;;9.00;6.63;;;6.50;99.90;;;;;;5061888;28;20273;-58
2023/04/18 04:43:24;;;;;;;10.67;8.17;;;6.50;99.90;;;;;;5073475;28;20233;-59
2023/04/18 04:45:52;;;;;;;11.30;7.43;;;6.50;99.90;;;;;;5073456;28;20679;-59
2023/04/18 04:48:20;;;;;;;11.53;7.73;;;6.50;99.90;;;;;;5074020;28;20231;-61
2023/04/18 04:50:58;;;;;;;11.03;7.53;;;6.70;99.90;;;;;;5058598;28;20257;-59
2023/04/18 04:53:30;;;;;;;10.73;7.87;;;6.50;99.90;;;;;;5074427;28;20199;-59
2023/04/18 04:55:58;;;;;;;10.93;6.77;;;6.40;99.90;;;;;;5063564;28;20283;-59
2023/04/18 04:58:25;;;;;;;9.07;7.27;;;6.40;99.90;;;;;;5072537;28;20205;-62
2023/04/18 05:00:52;;;;;;;10.43;7.47;;;6.50;99.90;;;;;;5056711;28;20210;-61
2023/04/18 05:03:19;;;;;;;11.83;7.87;;;6.50;99.90;;;;;;5057360;28;20211;-59
2023/04/18 05:05:47;;;;;;;10.20;7.37;;;6.50;99.90;;;;;;5074163;28;20252;-60
2023/04/18 05:08:14;;;;;;;9.23;7.47;;;6.40;99.90;;;;;;5076304;28;20254;-59
2023/04/18 05:10:42;;;;;;;9.70;8.07;;;6.50;99.90;;;;;;5072630;28;20208;-59
2023/04/18 05:13:09;;;;;;;9.57;7.07;;;6.50;99.90;;;;;;5055863;28;20199;-59
2023/04/18 05:15:36;;;;;;;12.70;7.90;;;6.50;99.90;;;;;;5071502;28;20223;-59
2023/04/18 05:18:03;;;;;;;10.97;7.80;;;6.50;99.90;;;;;;5076130;28;20214;-59
2023/04/18 05:20:30;;;;;;;12.80;8.50;;;6.40;99.90;;;;;;5074351;28;20320;-59
2023/04/18 05:22:57;;;;;;;10.63;7.63;;;6.50;99.90;;;;;;5056123;28;20223;-61
2023/04/18 05:25:23;;;;;;;11.97;8.00;;;6.40;99.90;;;;;;5071861;28;20933;-58
2023/04/18 05:27:50;;;;;;;12.67;8.10;;;6.40;99.90;;;;;;5040365;28;20301;-58
2023/04/18 05:30:17;;;;;;;11.23;7.93;;;6.40;99.90;;;;;;5039849;28;20203;-59
2023/04/18 05:32:44;;;;;;;11.13;8.13;;;6.40;99.90;;;;;;5076141;28;20207;-59
2023/04/18 05:35:11;;;;;;;11.37;7.37;;;6.50;99.90;;;;;;5057120;28;20637;-59
2023/04/18 05:37:38;;;;;;;12.13;7.63;;;6.60;99.90;;;;;;5056697;28;20225;-59
2023/04/18 05:40:07;;;;;;;8.13;6.90;;;6.60;99.90;;;;;;5071297;28;20589;-59
2023/04/18 05:42:34;;;;;;;10.77;8.30;;;6.70;99.90;;;;;;5062584;28;20235;-59
2023/04/18 05:45:00;;;;;;;11.50;7.23;;;6.70;99.90;;;;;;5054795;28;20715;-59
2023/04/18 05:47:29;;;;;;;12.83;7.27;;;6.70;99.90;;;;;;5074220;28;20233;-59
2023/04/18 05:49:56;;;;;;;9.40;7.30;;;6.80;99.90;;;;;;5072241;28;20673;-59
2023/04/18 05:52:24;;;;;;;10.53;7.87;;;6.90;99.90;;;;;;5074180;28;20548;-59
2023/04/18 05:54:52;;;;;;;10.43;7.73;;;6.90;99.90;;;;;;5054045;28;20563;-59
2023/04/18 05:57:19;;;;;;;10.23;7.93;;;7.00;99.90;;;;;;5056700;28;20209;-59
2023/04/18 05:59:46;;;;;;;10.23;7.60;;;7.10;99.90;;;;;;5061459;28;20202;-59
2023/04/18 06:02:13;;;;;;;10.87;7.50;;;7.10;99.90;;;;;;5064479;28;20209;-60
2023/04/18 06:04:43;;;;;;;11.33;7.80;;;7.10;99.90;;;;;;5070472;28;20332;-59
2023/04/18 06:07:11;;;;;;;10.90;7.67;;;7.20;99.90;;;;;;5074496;28;20289;-59
2023/04/18 06:09:38;;;;;;;11.60;7.73;;;7.30;99.90;;;;;;5052095;28;20326;-59
2023/04/18 06:12:05;;;;;;;10.27;6.90;;;7.30;99.90;;;;;;4702253;28;10000462;-59
2023/04/18 06:14:32;;;;;;;12.73;7.57;;;7.30;99.90;;;;;;5064340;28;20450;-59
2023/04/18 06:16:59;;;;;;;11.87;7.27;;;7.40;99.90;;;;;;5069583;28;20226;-59
2023/04/18 06:19:25;;;;;;;9.00;6.87;;;7.40;99.90;;;;;;5072266;28;20549;-59
2023/04/18 06:21:52;;;;;;;11.17;7.50;;;7.50;99.90;;;;;;5059435;28;20611;-59
2023/04/18 06:24:19;;;;;;;12.40;7.37;;;7.50;99.90;;;;;;5057057;28;20328;-59
2023/04/18 06:26:46;;;;;;;9.17;7.13;;;7.60;99.90;;;;;;5060147;28;20203;-58
2023/04/18 06:29:13;;;;;;;11.20;7.60;;;7.60;99.90;;;;;;5076128;28;20217;-61
2023/04/18 06:31:40;;;;;;;10.77;7.77;;;7.60;99.90;;;;;;5080286;28;20318;-60
2023/04/18 06:34:08;;;;;;;13.13;7.50;;;7.60;99.90;;;;;;5059339;28;21309;-60
2023/04/18 06:36:35;;;;;;;9.47;7.00;;;7.70;99.90;;;;;;5079257;28;20215;-60
2023/04/18 06:39:02;;;;;;;9.70;7.50;;;7.80;99.90;;;;;;5078022;28;20211;-62
2023/04/18 06:41:30;;;;;;;10.33;7.67;;;7.90;99.90;;;;;;5061611;28;20199;-61
2023/04/18 06:43:57;;;;;;;13.77;7.83;;;7.90;99.90;;;;;;5056812;28;20225;-61
2023/04/18 06:46:27;;;;;;;9.30;7.00;;;8.00;99.90;;;;;;5062717;28;20265;-60
2023/04/18 06:48:54;;;;;;;12.03;6.90;;;8.00;99.90;;;;;;5056746;28;20224;-61
2023/04/18 06:51:20;;;;;;;9.40;6.70;;;8.00;99.90;;;;;;5057041;28;20215;-60
2023/04/18 06:53:51;;;;;;;13.00;7.13;;;8.10;99.90;;;;;;5057245;28;20254;-60
2023/04/18 06:56:21;;;;;;;11.43;6.80;;;8.20;99.90;;;;;;5058530;28;20219;-60
2023/04/18 06:58:49;;;;;;;11.77;7.30;;;8.30;99.90;;;;;;5057170;28;20199;-61
2023/04/18 07:01:16;;;;;;;7.57;6.57;;;8.40;99.90;;;;;;5058657;28;20216;-60
2023/04/18 07:03:43;;;;;;;8.07;6.53;;;8.50;99.90;;;;;;5057142;28;20206;-61
2023/04/18 07:06:10;;;;;;;10.50;7.00;;;8.50;99.90;;;;;;5056497;28;20199;-61
2023/04/18 07:08:37;;;;;;;8.93;6.80;;;8.50;99.90;;;;;;5056546;28;20640;-61
2023/04/18 07:11:05;;;;;;;10.03;7.33;;;8.50;99.90;;;;;;5056659;28;20644;-61
2023/04/18 07:13:32;;;;;;;10.53;7.10;;;8.60;99.90;;;;;;5057569;28;20282;-60
2023/04/18 07:16:00;;;;;;;8.33;6.53;;;8.60;99.90;;;;;;5054585;28;20214;-60
2023/04/18 07:18:28;;;;;;;9.40;6.97;;;8.70;99.90;;;;;;5041653;28;20845;-61
2023/04/18 07:21:06;;;;;;;9.03;6.73;;;8.70;99.90;;;;;;5056356;28;20214;-60
2023/04/18 07:23:34;;;;;;;9.07;6.60;;;8.80;99.90;;;;;;5056702;28;20206;-61
2023/04/18 07:26:02;;;;;;;9.63;6.87;;;8.90;99.90;;;;;;5054914;28;20287;-60
2023/04/18 07:28:31;;;;;;;10.03;6.23;;;9.20;99.90;;;;;;5057034;28;20191;-61
2023/04/18 07:30:58;;;;;;;8.97;6.30;;;9.20;99.90;;;;;;5057157;28;20204;-61
2023/04/18 07:33:25;;;;;;;9.80;6.70;;;9.20;99.90;;;;;;5057240;28;20685;-60
2023/04/18 07:35:52;;;;;;;8.30;6.30;;;9.10;99.90;;;;;;5053296;28;20249;-62
2023/04/18 07:38:19;;;;;;;9.17;6.83;;;8.90;99.90;;;;;;5063121;28;20256;-61
2023/04/18 07:40:54;;;;;;;9.17;6.80;;;9.10;99.90;;;;;;5051438;28;20892;-61
2023/04/18 07:43:21;;;;;;;8.60;6.97;;;9.20;99.90;;;;;;5049445;28;20305;-61
2023/04/18 07:45:48;;;;;;;8.67;6.17;;;9.00;99.90;;;;;;5048775;28;20979;-60
2023/04/18 07:48:15;;;;;;;9.57;6.53;;;9.00;99.90;;;;;;5059281;28;20555;-61
2023/04/18 07:50:42;;;;;;;9.40;6.33;;;9.00;99.90;;;;;;5058425;28;20223;-60
2023/04/18 07:53:09;;;;;;;9.60;6.47;;;9.00;99.90;;;;;;5041348;28;20201;-61
2023/04/18 07:55:36;;;;;;;10.17;7.47;;;9.10;99.90;;;;;;5052821;28;20216;-62
2023/04/18 07:58:03;;;;;;;8.97;6.37;;;9.20;99.90;;;;;;5052785;28;20285;-61
2023/04/18 08:00:31;;;;;;;8.33;6.87;;;9.20;99.90;;;;;;5047372;28;20190;-61
2023/04/18 08:02:58;;;;;;;9.23;6.77;;;9.30;99.90;;;;;;5057896;28;20563;-61
2023/04/18 08:05:25;;;;;;;9.33;6.80;;;9.40;99.90;;;;;;5054748;28;20197;-61
2023/04/18 08:07:52;;;;;;;10.63;6.47;;;9.40;99.90;;;;;;5056297;28;20287;-61
2023/04/18 08:10:19;;;;;;;8.47;6.90;;;9.50;99.90;;;;;;5036481;28;20211;-61
2023/04/18 08:12:49;;;;;;;12.03;6.30;;;9.40;99.90;;;;;;5053332;28;20203;-61
2023/04/18 08:15:16;;;;;;;7.20;6.20;;;9.50;99.90;;;;;;5054843;28;20203;-60
2023/04/18 08:17:44;;;;;;;8.47;6.53;;;9.60;99.90;;;;;;5057990;28;20674;-61
2023/04/18 08:20:11;;;;;;;7.90;6.70;;;9.50;99.90;;;;;;5055997;28;20666;-61
2023/04/18 08:22:38;;;;;;;9.47;6.77;;;9.60;99.90;;;;;;5054965;28;20682;-62
2023/04/18 08:25:25;;;;;;;7.80;6.23;;;9.70;99.90;;;;;;5039619;28;20209;-62
2023/04/18 08:27:52;;;;;;;7.90;6.17;;;9.80;99.90;;;;;;5057008;28;20771;-61
2023/04/18 08:30:19;;;;;;;9.57;6.60;;;9.80;99.90;;;;;;5056768;28;20233;-61
2023/04/18 08:32:46;;;;;;;9.03;6.43;;;9.80;99.90;;;;;;5059454;28;21691;-62
2023/04/18 08:35:13;;;;;;;6.73;5.90;;;9.80;99.90;;;;;;5058643;28;20204;-61
2023/04/18 08:37:40;;;;;;;7.03;5.93;;;9.90;99.90;;;;;;5055570;28;20219;-61
2023/04/18 08:40:08;;;;;;;8.57;6.00;;;10.10;99.90;;;;;;5054517;28;20280;-61
2023/04/18 08:42:37;;;;;;;8.70;6.07;;;10.00;99.90;;;;;;5054307;28;20198;-61
2023/04/18 08:45:05;;;;;;;7.33;5.93;;;9.80;99.90;;;;;;5054784;28;20219;-61
2023/04/18 08:47:34;;;;;;;7.73;5.77;;;10.00;99.90;;;;;;5053131;28;20761;-60
2023/04/18 08:50:01;;;;;;;9.10;6.33;;;10.00;99.90;;;;;;5059102;28;20260;-60
2023/04/18 08:52:30;;;;;;;6.93;5.73;;;10.10;99.90;;;;;;5055281;28;20196;-62
2023/04/18 08:54:57;;;;;;;8.27;5.77;;;10.20;99.90;;;;;;5054774;28;20290;-61
2023/04/18 08:57:27;;;;;;;7.57;6.23;;;10.20;99.90;;;;;;5053576;28;20269;-60
2023/04/18 08:59:54;;;;;;;6.27;5.43;;;10.30;99.90;;;;;;5056933;28;20198;-61
2023/04/18 09:02:33;;;;;;;7.57;5.70;;;10.40;99.90;;;;;;5053520;28;20195;-61
2023/04/18 09:05:17;;;;;;;7.13;5.63;;;10.50;99.90;;;;;;5056177;28;20195;-61
2023/04/18 09:07:45;;;;;;;7.00;5.50;;;10.70;99.90;;;;;;5055067;28;20785;-64
2023/04/18 09:10:23;;;;;;;7.60;6.07;;;10.80;99.90;;;;;;5057165;28;20291;-61
2023/04/18 09:12:50;;;;;;;6.50;5.50;;;10.80;99.90;;;;;;5056594;28;20207;-61
2023/04/18 09:15:22;;;;;;;7.07;5.30;;;11.20;99.90;;;;;;5055854;28;20200;-61
2023/04/18 09:17:54;;;;;;;7.00;5.20;;;11.30;99.90;;;;;;5057990;28;20233;-61
2023/04/18 09:20:33;;;;;;;8.20;5.50;;;11.50;99.90;;;;;;5053617;28;20342;-61
2023/04/18 09:23:13;;;;;;;10.30;5.93;;;11.70;99.90;;;;;;5055879;28;20220;-61
2023/04/18 09:25:40;;;;;;;9.20;5.73;;;11.70;99.90;;;;;;5053392;28;20845;-61
2023/04/18 09:28:28;;;;;;;5.90;4.80;;;11.90;99.90;;;;;;5054880;28;20654;-61
2023/04/18 09:30:56;;;;;;;6.53;5.10;;;12.20;99.90;;;;;;5055951;28;20722;-61
2023/04/18 09:33:27;;;;;;;5.93;5.03;;;12.10;99.90;;;;;;5053761;28;20666;-62
2023/04/18 09:35:55;;;;;;;7.03;5.90;;;12.00;99.90;;;;;;5057104;28;20213;-60
2023/04/18 09:38:38;;;;;;;7.87;5.47;;;12.40;99.90;;;;;;5054537;28;20302;-61
2023/04/18 09:41:14;;;;;;;7.07;5.67;;;12.50;99.90;;;;;;5053695;28;20443;-61
2023/04/18 09:43:41;;;;;;;6.33;5.13;;;12.30;99.90;;;;;;5053850;28;20204;-61
2023/04/18 09:46:09;;;;;;;6.00;4.83;;;12.40;99.90;;;;;;5061733;28;20662;-61
2023/04/18 09:48:36;;;;;;;6.10;5.10;;;12.30;99.90;;;;;;5076351;28;20657;-61
2023/04/18 09:51:13;;;;;;;5.77;4.47;;;12.40;99.90;;;;;;5070871;28;20280;-61
2023/04/18 09:53:43;;;;;;;4.83;4.30;;;12.90;99.90;;;;;;5074297;28;20247;-61
2023/04/18 09:56:22;;;;;;;4.07;3.67;;;12.60;99.90;;;;;;5069629;28;21517;-61
2023/04/18 09:58:55;;;;;;;5.23;3.80;;;12.60;99.90;;;;;;5070903;28;20214;-60
2023/04/18 10:01:26;;;;;;;5.07;3.90;;;13.00;99.90;;;;;;5071404;28;20202;-61
2023/04/18 10:03:55;;;;;;;4.10;3.27;;;13.50;99.90;;;;;;5072846;28;20210;-61
2023/04/18 10:06:26;;;;;;;5.63;3.70;;;13.70;99.90;;;;;;5056690;28;20191;-61
2023/04/18 10:08:53;;;;;;;3.93;3.53;;;13.20;99.90;;;;;;5055554;28;20317;-61
2023/04/18 10:11:22;;;;;;;5.20;4.40;;;12.70;99.90;;;;;;5050683;28;20302;-61
2023/04/18 10:13:54;;;;;;;5.60;4.20;;;12.50;99.90;;;;;;5073167;28;20257;-60
2023/04/18 10:16:21;;;;;;;4.00;3.60;;;12.50;99.90;;;;;;5073691;28;20221;-61
2023/04/18 10:18:50;;;;;;;5.97;3.80;;;12.20;99.90;;;;;;5073049;28;20812;-61
2023/04/18 10:21:17;;;;;;;7.60;3.43;;;12.10;99.90;;;;;;5073681;28;20648;-60
2023/04/18 10:23:47;;;;;;;5.03;3.17;;;12.00;99.90;;;;;;5070903;28;20222;-61
2023/04/18 10:26:14;;;;;;;6.50;3.83;;;12.00;99.90;;;;;;5049111;28;20291;-59
2023/04/18 10:28:53;;;;;;;3.80;3.40;;;12.00;99.90;;;;;;5072217;28;20678;-59
2023/04/18 10:31:23;;;;;;;6.30;3.60;;;12.10;99.90;;;;;;5074515;28;20229;-59
2023/04/18 10:33:55;;;;;;;3.53;3.20;;;12.40;99.90;;;;;;5059457;28;20210;-59
2023/04/18 10:37:03;;;;;;;3.40;2.70;;;12.30;99.90;;;;;;5068951;28;20747;-59
2023/04/18 10:39:45;;;;;;;2.90;2.40;;;12.40;99.90;;;;;;5056585;28;20198;-63
2023/04/18 10:42:12;;;;;;;3.50;3.00;;;12.40;99.90;;;;;;5068344;28;22246;-62
2023/04/18 10:44:39;;;;;;;5.53;3.20;;;12.30;99.90;;;;;;5074084;28;20191;-60
2023/04/18 10:47:06;;;;;;;4.07;3.30;;;12.10;99.90;;;;;;5065799;28;20762;-59
2023/04/18 10:49:35;;;;;;;3.70;3.33;;;12.10;99.90;;;;;;5065083;28;20223;-59
2023/04/18 10:52:04;;;;;;;3.93;3.23;;;12.00;99.90;;;;;;5068761;28;20231;-59
2023/04/18 10:54:37;;;;;;;4.03;3.20;;;11.90;99.90;;;;;;5063075;28;20198;-59
2023/04/18 10:57:07;;;;;;;4.37;3.17;;;11.90;99.90;;;;;;5036735;28;22206;-59
2023/04/18 10:59:37;;;;;;;4.13;3.50;;;11.90;99.90;;;;;;5054277;28;20274;-60
2023/04/18 11:02:28;;;;;;;4.10;3.17;;;11.90;99.90;;;;;;5071512;28;20714;-61
2023/04/18 11:04:58;;;;;;;4.53;3.27;;;11.80;99.90;;;;;;5072879;28;20282;-59
2023/04/18 11:07:39;;;;;;;3.97;2.83;;;11.80;99.90;;;;;;5072561;28;20209;-59
2023/04/18 11:10:08;;;;;;;6.33;3.77;;;11.70;99.90;;;;;;5055480;28;20197;-59
2023/04/18 11:12:37;;;;;;;3.70;2.93;;;11.80;99.90;;;;;;5076301;28;20248;-60
2023/04/18 11:15:20;;;;;;;6.13;3.77;;;11.90;99.90;;;;;;5075068;28;20699;-60
2023/04/18 11:18:01;;;;;;;5.40;4.30;;;11.70;99.90;;;;;;5076941;28;21288;-59
2023/04/18 11:20:44;;;;;;;7.67;4.20;;;11.60;99.90;;;;;;5070568;28;20689;-59
2023/04/18 11:23:24;;;;;;;5.60;4.57;;;11.60;99.90;;;;;;5078319;28;20329;-59
2023/04/18 11:25:55;;;;;;;6.43;4.43;;;11.50;99.90;;;;;;5072192;28;20303;-59
2023/04/18 11:28:25;;;;;;;6.00;4.27;;;11.50;99.90;;;;;;5061317;28;20224;-60
2023/04/18 11:30:58;;;;;;;8.57;4.70;;;11.50;99.90;;;;;;5070521;28;20199;-59
2023/04/18 11:33:27;;;;;;;6.13;4.80;;;11.50;99.90;;;;;;5074546;28;20236;-59
2023/04/18 11:35:59;;;;;;;6.53;4.43;;;11.50;99.90;;;;;;5072963;28;20200;-59
2023/04/18 11:38:29;;;;;;;5.80;4.40;;;11.40;99.90;;;;;;5045902;28;20225;-59
2023/04/18 11:40:56;;;;;;;5.90;4.73;;;11.40;99.90;;;;;;5070122;28;20210;-59
2023/04/18 11:43:24;;;;;;;7.27;4.77;;;11.50;99.90;;;;;;5050556;28;20234;-59
2023/04/18 11:45:53;;;;;;;6.43;5.07;;;11.50;99.90;;;;;;5068358;28;20327;-59
2023/04/18 11:48:21;;;;;;;6.03;5.27;;;11.50;99.90;;;;;;5071331;28;20753;-59
2023/04/18 11:50:48;;;;;;;5.73;4.97;;;11.50;99.90;;;;;;5070679;28;20213;-59
2023/04/18 11:53:39;;;;;;;7.43;4.63;;;11.70;99.90;;;;;;5069295;28;20256;-59
2023/04/18 11:56:06;;;;;;;6.73;5.07;;;11.70;99.90;;;;;;5061703;28;20310;-59
2023/04/18 11:58:35;;;;;;;6.33;5.17;;;11.70;99.90;;;;;;5065963;28;20650;-58
2023/04/18 12:01:19;;;;;;;6.83;5.13;;;11.70;99.90;;;;;;5073816;28;20205;-59
2023/04/18 12:04:01;;;;;;;7.40;6.00;;;11.70;99.90;;;;;;5070063;28;20254;-59
2023/04/18 12:06:49;;;;;;;6.50;5.10;;;11.50;99.90;;;;;;5068174;28;20643;-59
2023/04/18 12:09:16;;;;;;;7.17;5.83;;;11.60;99.90;;;;;;5071268;28;20715;-62
2023/04/18 12:11:43;;;;;;;6.60;5.30;;;11.60;99.90;;;;;;5061511;28;20225;-60
2023/04/18 12:14:22;;;;;;;6.77;5.43;;;11.80;99.90;;;;;;5067293;28;20203;-59
2023/04/18 12:16:49;;;;;;;7.20;5.67;;;12.10;99.90;;;;;;5067736;28;20222;-59
2023/04/18 12:19:19;;;;;;;9.50;6.33;;;11.90;99.90;;;;;;5067998;28;20234;-59
2023/04/18 12:21:59;;;;;;;7.60;5.90;;;11.90;99.90;;;;;;5069679;28;20206;-59
2023/04/18 12:24:27;;;;;;;9.03;6.13;;;11.90;99.90;;;;;;5072527;28;20207;-61
2023/04/18 12:26:56;;;;;;;7.10;6.03;;;12.00;99.90;;;;;;5047967;28;20206;-61
2023/04/18 12:29:24;;;;;;;9.17;6.07;;;12.00;99.90;;;;;;5069237;28;20195;-61
2023/04/18 12:31:51;;;;;;;8.07;5.90;;;11.90;99.90;;;;;;5069654;28;20203;-61
2023/04/18 12:34:21;;;;;;;7.77;6.03;;;11.90;99.90;;;;;;5066566;28;20199;-61
2023/04/18 12:36:51;;;;;;;7.07;5.83;;;11.90;99.90;;;;;;5064548;28;20199;-61
2023/04/18 12:39:18;;;;;;;7.80;5.97;;;11.80;99.90;;;;;;5068592;28;20221;-61
2023/04/18 12:41:45;;;;;;;8.07;5.93;;;11.90;99.90;;;;;;5049388;28;20201;-61
2023/04/18 12:44:16;;;;;;;7.50;5.90;;;12.10;99.90;;;;;;5055905;28;20196;-65
2023/04/18 12:46:43;;;;;;;8.60;6.13;;;12.30;99.90;;;;;;5065760;28;20681;-61
2023/04/18 12:49:10;;;;;;;7.27;5.80;;;12.60;99.90;;;;;;5054272;28;20214;-60
2023/04/18 12:51:37;;;;;;;8.87;6.00;;;12.50;99.90;;;;;;5065562;28;20219;-60
2023/04/18 12:54:04;;;;;;;7.40;6.27;;;12.40;99.90;;;;;;5047704;28;20213;-60
2023/04/18 12:56:30;;;;;;;9.40;6.47;;;12.40;99.90;;;;;;5049686;28;20853;-60